createdAt,value
2023-01-08T00:00:42.688Z,10.68
2023-01-08T00:03:09.124Z,10.60
2023-01-08T00:05:35.568Z,10.51
2023-01-08T00:08:01.903Z,10.46
2023-01-08T00:10:28.271Z,10.42
2023-01-08T00:12:57.518Z,10.38
2023-01-08T00:15:23.803Z,10.35
2023-01-08T00:17:50.088Z,10.33
2023-01-08T00:20:16.372Z,10.29
2023-01-08T00:22:42.704Z,10.24
2023-01-08T00:25:09.329Z,10.21
2023-01-08T00:27:35.649Z,10.20
2023-01-08T00:30:01.947Z,10.18
2023-01-08T00:32:28.305Z,10.20
2023-01-08T00:34:54.662Z,10.21
2023-01-08T00:37:21.146Z,10.21
2023-01-08T00:39:47.496Z,10.19
2023-01-08T00:42:13.795Z,10.19
2023-01-08T00:44:40.173Z,10.23
2023-01-08T00:47:06.587Z,10.24
2023-01-08T00:49:32.911Z,10.25
2023-01-08T00:51:59.228Z,10.27
2023-01-08T00:54:25.530Z,10.31
2023-01-08T00:56:51.901Z,10.32
2023-01-08T00:59:18.371Z,10.32
2023-01-08T01:01:44.877Z,10.31
2023-01-08T01:04:11.338Z,10.36
2023-01-08T01:06:37.781Z,10.36
2023-01-08T01:09:04.104Z,10.36
2023-01-08T01:11:30.412Z,10.37
2023-01-08T01:13:57.125Z,10.36
2023-01-08T01:16:23.932Z,10.37
2023-01-08T01:18:52.184Z,10.34
2023-01-08T01:21:26.179Z,10.36
2023-01-08T01:24:03.376Z,10.34
2023-01-08T01:26:30.156Z,10.36
2023-01-08T01:28:57.520Z,10.36
2023-01-08T01:31:24.423Z,10.37
2023-01-08T01:33:51.265Z,10.37
2023-01-08T01:36:19.219Z,10.36
2023-01-08T01:38:46.492Z,10.38
2023-01-08T01:41:22.110Z,10.39
2023-01-08T01:43:48.394Z,10.36
2023-01-08T01:46:28.160Z,10.38
2023-01-08T01:48:56.717Z,10.40
2023-01-08T01:51:25.526Z,10.39
2023-01-08T01:53:51.848Z,10.38
2023-01-08T01:56:18.127Z,10.37
2023-01-08T01:58:44.436Z,10.35
2023-01-08T02:01:10.903Z,10.38
2023-01-08T02:03:38.177Z,10.37
2023-01-08T02:06:04.615Z,10.36
2023-01-08T02:08:49.770Z,10.38
2023-01-08T02:11:34.977Z,10.37
2023-01-08T02:14:09.276Z,10.33
2023-01-08T02:16:57.203Z,10.32
2023-01-08T02:19:42.050Z,10.29
2023-01-08T02:22:37.842Z,10.28
2023-01-08T02:25:22.743Z,10.24
2023-01-08T02:27:51.041Z,10.24
2023-01-08T02:30:17.717Z,10.23
2023-01-08T02:32:44.133Z,10.21
2023-01-08T02:35:11.734Z,10.24
2023-01-08T02:37:38.669Z,10.24
2023-01-08T02:40:19.337Z,10.24
2023-01-08T02:42:59.040Z,10.22
2023-01-08T02:45:46.717Z,10.23
2023-01-08T02:48:22.734Z,10.23
2023-01-08T02:50:54.571Z,10.23
2023-01-08T02:53:24.066Z,10.23
2023-01-08T02:55:53.438Z,10.23
2023-01-08T02:58:23.110Z,10.24
2023-01-08T03:00:51.967Z,10.24
2023-01-08T03:03:22.981Z,10.24
2023-01-08T03:05:51.537Z,10.26
2023-01-08T03:08:18.575Z,10.26
2023-01-08T03:10:47.457Z,10.26
2023-01-08T03:13:21.537Z,10.26
2023-01-08T03:15:51.439Z,10.27
2023-01-08T03:18:22.004Z,10.28
2023-01-08T03:20:49.518Z,10.31
2023-01-08T03:23:18.055Z,10.27
2023-01-08T03:25:45.979Z,10.28
2023-01-08T03:28:15.267Z,10.28
2023-01-08T03:30:42.331Z,10.28
2023-01-08T03:33:10.449Z,10.27
2023-01-08T03:35:37.836Z,10.26
2023-01-08T03:38:13.937Z,10.27
2023-01-08T03:40:43.902Z,10.24
2023-01-08T03:43:10.269Z,10.26
2023-01-08T03:45:38.571Z,10.28
2023-01-08T03:48:05.627Z,10.27
2023-01-08T03:50:32.398Z,10.27
2023-01-08T03:53:00.639Z,10.27
2023-01-08T03:55:27.346Z,10.29
2023-01-08T03:57:53.676Z,10.31
2023-01-08T04:00:20.124Z,10.31
2023-01-08T04:02:46.591Z,10.21
2023-01-08T04:05:12.927Z,10.33
2023-01-08T04:07:39.339Z,10.34
2023-01-08T04:10:06.082Z,10.32
2023-01-08T04:12:32.351Z,10.32
2023-01-08T04:14:58.665Z,10.24
2023-01-08T04:17:24.971Z,10.32
2023-01-08T04:19:51.303Z,10.31
2023-01-08T04:22:17.598Z,10.30
2023-01-08T04:24:43.939Z,10.32
2023-01-08T04:27:10.247Z,10.36
2023-01-08T04:29:36.564Z,10.37
2023-01-08T04:32:02.970Z,10.36
2023-01-08T04:34:29.570Z,10.39
2023-01-08T04:36:56.125Z,10.42
2023-01-08T04:39:25.590Z,10.41
2023-01-08T04:41:53.243Z,10.40
2023-01-08T04:44:19.955Z,10.38
2023-01-08T04:46:46.288Z,10.38
2023-01-08T04:49:12.809Z,10.38
2023-01-08T04:51:39.068Z,10.41
2023-01-08T04:54:05.567Z,10.41
2023-01-08T04:56:32.001Z,10.37
2023-01-08T04:58:58.736Z,10.35
2023-01-08T05:01:26.313Z,10.30
2023-01-08T05:03:53.834Z,10.25
2023-01-08T05:06:20.130Z,10.26
2023-01-08T05:08:46.524Z,10.23
2023-01-08T05:11:12.814Z,10.18
2023-01-08T05:13:39.214Z,10.13
2023-01-08T05:16:05.679Z,10.10
2023-01-08T05:18:32.042Z,10.10
2023-01-08T05:21:02.320Z,10.05
2023-01-08T05:23:29.500Z,10.07
2023-01-08T05:25:59.039Z,10.06
2023-01-08T05:28:27.946Z,10.03
2023-01-08T05:30:54.434Z,9.98
2023-01-08T05:33:21.005Z,9.97
2023-01-08T05:35:47.342Z,9.95
2023-01-08T05:38:13.876Z,9.92
2023-01-08T05:40:40.265Z,9.87
2023-01-08T05:43:09.310Z,9.82
2023-01-08T05:45:35.636Z,9.79
2023-01-08T05:48:05.477Z,9.75
2023-01-08T05:50:31.856Z,9.71
2023-01-08T05:52:58.375Z,9.67
2023-01-08T05:55:24.742Z,9.60
2023-01-08T05:57:51.336Z,9.56
2023-01-08T06:00:17.712Z,9.55
2023-01-08T06:02:47.896Z,9.52
2023-01-08T06:05:14.529Z,9.51
2023-01-08T06:07:40.860Z,9.47
2023-01-08T06:10:07.358Z,9.43
2023-01-08T06:12:33.650Z,9.43
2023-01-08T06:14:59.983Z,9.45
2023-01-08T06:17:26.289Z,9.41
2023-01-08T06:19:52.587Z,9.40
2023-01-08T06:22:18.836Z,9.41
2023-01-08T06:24:45.087Z,9.42
2023-01-08T06:27:11.400Z,9.38
2023-01-08T06:29:37.718Z,9.33
2023-01-08T06:32:04.116Z,9.30
2023-01-08T06:34:30.461Z,9.27
2023-01-08T06:36:56.810Z,9.25
2023-01-08T06:39:23.121Z,9.22
2023-01-08T06:41:49.398Z,9.20
2023-01-08T06:44:15.680Z,9.19
2023-01-08T06:46:42.105Z,9.14
2023-01-08T06:49:09.020Z,9.09
2023-01-08T06:51:36.032Z,8.77
2023-01-08T06:54:03.656Z,8.99
2023-01-08T06:56:29.937Z,8.97
2023-01-08T06:58:56.535Z,8.90
2023-01-08T07:01:23.094Z,8.88
2023-01-08T07:03:49.593Z,8.87
2023-01-08T07:06:17.149Z,8.79
2023-01-08T07:08:44.084Z,8.82
2023-01-08T07:11:10.785Z,8.78
2023-01-08T07:13:37.183Z,8.75
2023-01-08T07:16:07.642Z,8.68
2023-01-08T07:18:34.262Z,8.67
2023-01-08T07:21:00.707Z,8.64
2023-01-08T07:23:27.110Z,8.63
2023-01-08T07:25:53.373Z,8.63
2023-01-08T07:28:19.683Z,8.65
2023-01-08T07:30:45.982Z,8.62
2023-01-08T07:33:12.360Z,8.60
2023-01-08T07:35:39.033Z,8.54
2023-01-08T07:38:05.594Z,8.54
2023-01-08T07:40:32.011Z,8.55
2023-01-08T07:42:59.423Z,8.53
2023-01-08T07:45:26.376Z,8.53
2023-01-08T07:47:52.686Z,8.52
2023-01-08T07:50:19.044Z,8.41
2023-01-08T07:52:45.342Z,8.40
2023-01-08T07:55:14.624Z,8.42
2023-01-08T07:57:41.039Z,8.36
2023-01-08T08:00:08.039Z,8.35
2023-01-08T08:02:34.636Z,8.30
2023-01-08T08:05:01.066Z,8.30
2023-01-08T08:07:27.328Z,8.33
2023-01-08T08:09:53.652Z,8.35
2023-01-08T08:12:19.923Z,8.35
2023-01-08T08:14:49.057Z,8.34
2023-01-08T08:17:15.413Z,8.33
2023-01-08T08:19:44.061Z,8.31
2023-01-08T08:22:10.335Z,8.31
2023-01-08T08:24:36.767Z,8.30
2023-01-08T08:27:03.061Z,8.30
2023-01-08T08:29:29.359Z,8.30
2023-01-08T08:31:55.651Z,8.31
2023-01-08T08:34:22.595Z,8.35
2023-01-08T08:36:49.457Z,8.34
2023-01-08T08:39:15.799Z,8.29
2023-01-08T08:41:44.809Z,8.32
2023-01-08T08:44:11.122Z,8.35
2023-01-08T08:46:37.497Z,8.37
2023-01-08T08:49:03.819Z,8.39
2023-01-08T08:51:31.677Z,8.43
2023-01-08T08:53:57.993Z,8.42
2023-01-08T08:56:29.770Z,8.42
2023-01-08T08:58:56.192Z,8.48
2023-01-08T09:01:22.703Z,8.56
2023-01-08T09:03:51.849Z,8.66
2023-01-08T09:06:18.185Z,8.87
2023-01-08T09:08:44.573Z,9.27
2023-01-08T09:11:13.074Z,9.60
2023-01-08T09:13:40.486Z,9.90
2023-01-08T09:16:09.799Z,10.12
2023-01-08T09:18:36.160Z,10.41
2023-01-08T09:21:06.868Z,10.78
2023-01-08T09:23:33.490Z,11.19
2023-01-08T09:26:03.632Z,11.57
2023-01-08T09:28:30.552Z,11.84
2023-01-08T09:30:56.837Z,12.06
2023-01-08T09:33:25.342Z,12.22
2023-01-08T09:35:51.941Z,12.34
2023-01-08T09:38:18.555Z,12.46
2023-01-08T09:40:53.103Z,12.50
2023-01-08T09:43:20.990Z,12.63
2023-01-08T09:45:52.732Z,12.69
2023-01-08T09:48:21.959Z,12.73
2023-01-08T09:50:48.279Z,12.67
2023-01-08T09:53:17.524Z,12.63
2023-01-08T09:55:44.831Z,12.72
2023-01-08T09:58:29.718Z,12.89
2023-01-08T10:00:56.745Z,13.01
2023-01-08T10:03:28.903Z,13.06
2023-01-08T10:05:55.328Z,13.10
2023-01-08T10:08:21.593Z,13.16
2023-01-08T10:10:48.196Z,13.25
2023-01-08T10:13:15.241Z,13.43
2023-01-08T10:15:41.753Z,13.59
2023-01-08T10:18:25.672Z,13.84
2023-01-08T10:20:54.546Z,13.95
2023-01-08T10:23:22.757Z,14.18
2023-01-08T10:26:00.097Z,14.37
2023-01-08T10:28:37.941Z,14.54
2023-01-08T10:31:05.647Z,14.77
2023-01-08T10:33:42.561Z,15.03
2023-01-08T10:36:10.613Z,15.34
2023-01-08T10:38:41.834Z,15.59
2023-01-08T10:41:12.725Z,15.60
2023-01-08T10:43:48.030Z,15.66
2023-01-08T10:46:22.355Z,15.90
2023-01-08T10:48:51.556Z,16.17
2023-01-08T10:51:23.676Z,16.39
2023-01-08T10:53:51.227Z,16.57
2023-01-08T10:56:28.024Z,16.63
2023-01-08T10:58:57.396Z,16.64
2023-01-08T11:01:31.272Z,16.69
2023-01-08T11:03:59.623Z,16.70
2023-01-08T11:06:27.586Z,16.76
2023-01-08T11:08:55.435Z,16.75
2023-01-08T11:11:22.149Z,16.82
2023-01-08T11:13:55.104Z,16.74
2023-01-08T11:16:23.590Z,16.54
2023-01-08T11:18:51.200Z,16.53
2023-01-08T11:21:22.567Z,16.49
2023-01-08T11:24:02.017Z,16.65
2023-01-08T11:26:29.096Z,16.95
2023-01-08T11:29:10.449Z,17.10
2023-01-08T11:31:36.775Z,17.24
2023-01-08T11:34:11.975Z,17.46
2023-01-08T11:36:44.374Z,17.70
2023-01-08T11:39:13.698Z,17.66
2023-01-08T11:42:00.950Z,17.83
2023-01-08T11:44:35.996Z,17.26
2023-01-08T11:47:08.893Z,16.58
2023-01-08T11:49:42.373Z,15.94
2023-01-08T11:52:14.760Z,15.44
2023-01-08T11:55:02.051Z,15.12
2023-01-08T11:58:05.141Z,14.61
2023-01-08T12:00:49.913Z,14.25
2023-01-08T12:03:25.754Z,14.03
2023-01-08T12:06:01.526Z,13.85
2023-01-08T12:08:36.815Z,13.84
2023-01-08T12:11:07.190Z,13.68
2023-01-08T12:13:50.105Z,13.54
2023-01-08T12:16:32.690Z,13.27
2023-01-08T12:19:25.560Z,13.08
2023-01-08T12:21:54.745Z,12.92
2023-01-08T12:24:21.089Z,12.86
2023-01-08T12:26:51.156Z,12.98
2023-01-08T12:29:24.904Z,13.50
2023-01-08T12:32:02.935Z,14.39
2023-01-08T12:34:49.440Z,14.85
2023-01-08T12:37:23.269Z,14.87
2023-01-08T12:39:53.477Z,14.65
2023-01-08T12:42:24.442Z,14.45
2023-01-08T12:44:53.008Z,14.34
2023-01-08T12:47:22.138Z,14.02
2023-01-08T12:49:54.093Z,14.10
2023-01-08T12:52:28.266Z,14.15
2023-01-08T12:54:58.607Z,14.20
2023-01-08T12:57:34.057Z,14.67
2023-01-08T13:00:06.551Z,15.17
2023-01-08T13:02:51.928Z,15.34
2023-01-08T13:05:18.437Z,15.35
2023-01-08T13:08:03.696Z,15.63
2023-01-08T13:10:29.953Z,15.82
2023-01-08T13:12:57.543Z,15.86
2023-01-08T13:15:27.121Z,15.65
2023-01-08T13:17:59.586Z,15.86
2023-01-08T13:20:29.426Z,16.31
2023-01-08T13:22:57.850Z,16.65
2023-01-08T13:25:32.092Z,16.88
2023-01-08T13:27:58.846Z,17.04
2023-01-08T13:30:38.665Z,17.22
2023-01-08T13:33:24.767Z,17.26
2023-01-08T13:35:51.034Z,17.17
2023-01-08T13:38:18.903Z,17.08
2023-01-08T13:40:51.177Z,16.97
2023-01-08T13:43:25.109Z,16.74
2023-01-08T13:46:07.092Z,16.63
2023-01-08T13:48:37.204Z,16.62
2023-01-08T13:51:04.311Z,16.61
2023-01-08T13:53:31.162Z,16.61
2023-01-08T13:56:00.267Z,16.51
2023-01-08T13:58:29.645Z,16.27
2023-01-08T14:00:58.108Z,15.98
2023-01-08T14:03:28.828Z,15.59
2023-01-08T14:06:13.285Z,15.25
2023-01-08T14:09:08.929Z,14.68
2023-01-08T14:11:37.993Z,14.32
2023-01-08T14:14:05.434Z,14.07
2023-01-08T14:16:33.348Z,13.83
2023-01-08T14:19:00.926Z,13.72
2023-01-08T14:21:28.345Z,13.60
2023-01-08T14:23:54.755Z,13.52
2023-01-08T14:26:38.608Z,13.44
2023-01-08T14:29:13.334Z,13.41
2023-01-08T14:31:45.443Z,13.22
2023-01-08T14:34:13.034Z,13.05
2023-01-08T14:36:41.334Z,13.05
2023-01-08T14:39:19.767Z,13.02
2023-01-08T14:42:04.887Z,12.97
2023-01-08T14:44:38.050Z,12.90
2023-01-08T14:47:16.726Z,12.80
2023-01-08T14:49:44.669Z,12.65
2023-01-08T14:52:12.983Z,12.57
2023-01-08T14:54:39.642Z,12.46
2023-01-08T14:57:06.343Z,12.40
2023-01-08T14:59:34.238Z,12.32
2023-01-08T15:02:02.072Z,12.28
2023-01-08T15:04:31.743Z,12.20
2023-01-08T15:07:05.670Z,12.12
2023-01-08T15:09:33.580Z,12.11
2023-01-08T15:12:01.297Z,12.06
2023-01-08T15:14:28.979Z,12.04
2023-01-08T15:16:57.030Z,11.97
2023-01-08T15:19:27.385Z,11.96
2023-01-08T15:21:55.833Z,11.96
2023-01-08T15:24:25.014Z,11.77
2023-01-08T15:26:51.848Z,11.76
2023-01-08T15:29:19.804Z,11.74
2023-01-08T15:31:47.291Z,11.76
2023-01-08T15:34:13.802Z,11.71
2023-01-08T15:36:40.080Z,11.66
2023-01-08T15:39:06.548Z,11.60
2023-01-08T15:41:52.993Z,11.53
2023-01-08T15:44:19.318Z,11.38
2023-01-08T15:46:45.704Z,11.37
2023-01-08T15:49:12.285Z,11.31
2023-01-08T15:51:42.580Z,11.28
2023-01-08T15:54:11.934Z,11.24
2023-01-08T15:56:38.806Z,11.24
2023-01-08T15:59:05.121Z,11.23
2023-01-08T16:01:32.674Z,11.18
2023-01-08T16:03:59.087Z,11.12
2023-01-08T16:06:25.857Z,11.06
2023-01-08T16:08:52.293Z,11.06
2023-01-08T16:11:19.329Z,10.98
2023-01-08T16:13:46.222Z,10.95
2023-01-08T16:16:14.843Z,10.91
2023-01-08T16:18:41.519Z,10.91
2023-01-08T16:21:08.808Z,10.77
2023-01-08T16:23:36.131Z,10.76
2023-01-08T16:26:20.458Z,10.72
2023-01-08T16:28:46.776Z,10.62
2023-01-08T16:31:22.232Z,10.61
2023-01-08T16:33:48.624Z,10.56
2023-01-08T16:36:14.929Z,10.57
2023-01-08T16:38:41.254Z,10.59
2023-01-08T16:41:07.698Z,10.55
2023-01-08T16:43:38.504Z,10.51
2023-01-08T16:46:09.350Z,10.50
2023-01-08T16:48:35.639Z,10.45
2023-01-08T16:51:04.592Z,10.41
2023-01-08T16:53:31.011Z,10.41
2023-01-08T16:56:00.409Z,10.46
2023-01-08T16:58:27.347Z,10.45
2023-01-08T17:00:53.714Z,10.40
2023-01-08T17:03:20.965Z,10.36
2023-01-08T17:05:47.305Z,10.38
2023-01-08T17:08:16.154Z,10.35
2023-01-08T17:10:43.113Z,10.37
2023-01-08T17:13:09.386Z,10.37
2023-01-08T17:15:39.680Z,10.37
2023-01-08T17:18:06.155Z,10.42
2023-01-08T17:20:32.556Z,10.36
2023-01-08T17:22:59.847Z,10.36
2023-01-08T17:25:26.112Z,10.35
2023-01-08T17:27:54.052Z,10.33
2023-01-08T17:30:20.557Z,10.35
2023-01-08T17:32:47.037Z,10.35
2023-01-08T17:35:13.417Z,10.32
2023-01-08T17:37:39.781Z,10.40
2023-01-08T17:40:06.963Z,10.40
2023-01-08T17:42:33.337Z,10.42
2023-01-08T17:45:05.514Z,10.41
2023-01-08T17:47:31.914Z,10.44
2023-01-08T17:49:58.521Z,10.42
2023-01-08T17:52:25.463Z,10.43
2023-01-08T17:54:52.243Z,10.45
2023-01-08T17:57:19.920Z,10.50
2023-01-08T17:59:46.532Z,10.50
2023-01-08T18:02:15.910Z,10.53
2023-01-08T18:04:42.930Z,10.46
2023-01-08T18:07:11.976Z,10.41
2023-01-08T18:09:38.455Z,10.34
2023-01-08T18:12:04.925Z,10.36
2023-01-08T18:14:31.330Z,10.30
2023-01-08T18:16:57.688Z,10.32
2023-01-08T18:19:26.054Z,10.36
2023-01-08T18:21:52.491Z,10.34
2023-01-08T18:24:18.776Z,10.31
2023-01-08T18:26:46.406Z,10.27
2023-01-08T18:29:12.792Z,10.23
2023-01-08T18:31:39.193Z,10.17
2023-01-08T18:34:05.682Z,10.10
2023-01-08T18:36:32.023Z,10.05
2023-01-08T18:38:58.323Z,10.08
2023-01-08T18:41:43.192Z,10.03
2023-01-08T18:44:10.313Z,10.00
2023-01-08T18:46:36.913Z,9.99
2023-01-08T18:49:03.349Z,9.94
2023-01-08T18:51:29.761Z,9.88
2023-01-08T18:53:56.180Z,9.84
2023-01-08T18:56:26.995Z,9.80
2023-01-08T18:58:53.280Z,9.72
2023-01-08T19:01:19.669Z,9.72
2023-01-08T19:03:46.168Z,9.67
2023-01-08T19:06:13.433Z,9.62
2023-01-08T19:08:40.225Z,9.65
2023-01-08T19:11:07.208Z,9.66
2023-01-08T19:13:33.492Z,9.69
2023-01-08T19:16:01.002Z,9.69
2023-01-08T19:18:27.495Z,9.66
2023-01-08T19:20:57.295Z,9.65
2023-01-08T19:23:24.220Z,9.65
2023-01-08T19:25:50.624Z,9.63
2023-01-08T19:28:16.966Z,9.62
2023-01-08T19:30:44.488Z,9.60
2023-01-08T19:33:15.434Z,9.60
2023-01-08T19:35:41.803Z,9.59
2023-01-08T19:38:08.415Z,9.60
2023-01-08T19:40:34.666Z,9.60
2023-01-08T19:43:19.828Z,9.63
2023-01-08T19:45:46.143Z,9.66
2023-01-08T19:48:12.691Z,9.62
2023-01-08T19:50:39.352Z,9.57
2023-01-08T19:53:05.841Z,9.58
2023-01-08T19:55:34.775Z,9.59
2023-01-08T19:58:29.334Z,9.56
2023-01-08T20:00:55.655Z,9.60
2023-01-08T20:03:28.355Z,9.62
2023-01-08T20:06:26.024Z,9.62
2023-01-08T20:08:55.974Z,9.59
2023-01-08T20:11:22.783Z,9.59
2023-01-08T20:13:49.723Z,9.59
2023-01-08T20:16:18.590Z,9.60
2023-01-08T20:18:45.995Z,9.61
2023-01-08T20:21:18.391Z,9.63
2023-01-08T20:23:45.301Z,9.58
2023-01-08T20:26:14.911Z,9.59
2023-01-08T20:28:42.907Z,9.59
2023-01-08T20:31:15.484Z,9.63
2023-01-08T20:33:43.196Z,9.60
2023-01-08T20:36:12.813Z,9.62
2023-01-08T20:38:39.242Z,9.62
2023-01-08T20:41:06.834Z,9.58
2023-01-08T20:43:34.253Z,9.59
2023-01-08T20:46:00.935Z,9.54
2023-01-08T20:48:30.019Z,9.51
2023-01-08T20:51:04.298Z,9.50
2023-01-08T20:53:33.375Z,9.46
2023-01-08T20:56:09.084Z,9.46
2023-01-08T20:58:37.992Z,9.41
2023-01-08T21:01:09.957Z,9.40
2023-01-08T21:03:37.183Z,9.38
2023-01-08T21:06:12.511Z,9.35
2023-01-08T21:08:40.371Z,9.32
2023-01-08T21:11:09.144Z,9.29
2023-01-08T21:13:36.426Z,9.28
2023-01-08T21:16:09.648Z,9.23
2023-01-08T21:18:36.945Z,9.19
2023-01-08T21:21:05.495Z,9.22
2023-01-08T21:23:33.295Z,9.17
2023-01-08T21:26:03.184Z,9.15
2023-01-08T21:28:30.013Z,9.14
2023-01-08T21:31:03.347Z,9.07
2023-01-08T21:33:29.751Z,9.11
2023-01-08T21:35:56.151Z,9.11
2023-01-08T21:38:22.627Z,9.11
2023-01-08T21:40:58.839Z,9.12
2023-01-08T21:43:43.976Z,9.13
2023-01-08T21:46:10.614Z,9.08
2023-01-08T21:48:37.109Z,9.05
2023-01-08T21:51:03.603Z,9.07
2023-01-08T21:53:35.983Z,9.05
2023-01-08T21:56:04.444Z,9.03
2023-01-08T21:58:31.816Z,9.03
2023-01-08T22:00:58.478Z,9.05
2023-01-08T22:03:25.009Z,9.08
2023-01-08T22:06:06.177Z,9.10
2023-01-08T22:08:34.197Z,9.12
2023-01-08T22:11:05.204Z,9.14
2023-01-08T22:13:31.630Z,9.11
2023-01-08T22:16:07.703Z,9.12
2023-01-08T22:18:34.405Z,9.10
2023-01-08T22:21:06.508Z,9.07
2023-01-08T22:23:33.630Z,9.07
2023-01-08T22:26:04.323Z,9.04
2023-01-08T22:28:30.833Z,9.01
2023-01-08T22:30:57.904Z,9.01
2023-01-08T22:33:27.390Z,9.03
2023-01-08T22:35:57.131Z,9.08
2023-01-08T22:38:23.760Z,9.08
2023-01-08T22:40:50.162Z,9.08
2023-01-08T22:43:16.581Z,9.11
2023-01-08T22:45:42.993Z,9.13
2023-01-08T22:48:09.470Z,9.12
2023-01-08T22:50:35.900Z,9.08
2023-01-08T22:53:02.386Z,9.11
2023-01-08T22:55:29.088Z,9.13
2023-01-08T22:57:55.747Z,9.11
2023-01-08T23:00:22.214Z,9.09
2023-01-08T23:02:48.796Z,9.00
2023-01-08T23:05:15.286Z,9.05
2023-01-08T23:07:42.175Z,9.06
2023-01-08T23:10:09.988Z,9.05
2023-01-08T23:12:36.432Z,8.99
2023-01-08T23:15:04.380Z,8.96
2023-01-08T23:17:38.927Z,8.94
2023-01-08T23:20:11.649Z,8.94
2023-01-08T23:22:38.183Z,8.93
2023-01-08T23:25:05.491Z,8.88
2023-01-08T23:27:33.652Z,8.87
2023-01-08T23:30:01.088Z,8.86
2023-01-08T23:32:27.987Z,8.82
2023-01-08T23:34:54.530Z,8.78
2023-01-08T23:37:22.359Z,8.75
2023-01-08T23:39:48.821Z,8.73
2023-01-08T23:42:15.696Z,8.70
2023-01-08T23:44:42.313Z,8.64
2023-01-08T23:47:08.703Z,8.65
2023-01-08T23:49:35.249Z,8.64
2023-01-08T23:52:06.536Z,8.60
2023-01-08T23:54:33.088Z,8.56
2023-01-08T23:57:00.660Z,8.55
2023-01-08T23:59:27.325Z,8.51
